sensor_id;sensor_type;location;lat;lon;timestamp;temperature;humidity
21489;DHT22;10906;45.194;5.684;2022-08-03T05:00:18;21.90;68.60
21489;DHT22;10906;45.194;5.684;2022-08-03T05:03:02;21.90;68.60
21489;DHT22;10906;45.194;5.684;2022-08-03T05:05:46;21.90;68.70
21489;DHT22;10906;45.194;5.684;2022-08-03T05:08:30;21.90;68.90
21489;DHT22;10906;45.194;5.684;2022-08-03T05:11:15;21.90;68.90
21489;DHT22;10906;45.194;5.684;2022-08-03T05:13:59;21.90;69.10
21489;DHT22;10906;45.194;5.684;2022-08-03T05:16:43;21.90;69.60
21489;DHT22;10906;45.194;5.684;2022-08-03T05:19:27;21.90;69.90
21489;DHT22;10906;45.194;5.684;2022-08-03T05:22:12;21.90;70.00
21489;DHT22;10906;45.194;5.684;2022-08-03T05:24:57;21.90;70.00
21489;DHT22;10906;45.194;5.684;2022-08-03T05:27:41;21.90;70.10
21489;DHT22;10906;45.194;5.684;2022-08-03T05:30:26;22.00;70.70
21489;DHT22;10906;45.194;5.684;2022-08-03T05:33:10;22.00;71.20
21489;DHT22;10906;45.194;5.684;2022-08-03T05:35:55;22.10;70.90
21489;DHT22;10906;45.194;5.684;2022-08-03T05:38:39;22.10;70.90
21489;DHT22;10906;45.194;5.684;2022-08-03T05:41:23;22.20;70.80
21489;DHT22;10906;45.194;5.684;2022-08-03T05:44:07;22.30;70.60
21489;DHT22;10906;45.194;5.684;2022-08-03T05:46:51;22.40;70.70
21489;DHT22;10906;45.194;5.684;2022-08-03T05:49:36;22.50;70.90
21489;DHT22;10906;45.194;5.684;2022-08-03T05:52:20;22.50;70.40
21489;DHT22;10906;45.194;5.684;2022-08-03T05:55:05;22.50;69.90
21489;DHT22;10906;45.194;5.684;2022-08-03T05:57:50;22.60;70.30
21489;DHT22;10906;45.194;5.684;2022-08-03T06:00:35;22.70;70.00
21489;DHT22;10906;45.194;5.684;2022-08-03T06:03:20;22.70;69.50
21489;DHT22;10906;45.194;5.684;2022-08-03T06:06:04;22.80;69.60
21489;DHT22;10906;45.194;5.684;2022-08-03T06:08:49;22.80;69.50
21489;DHT22;10906;45.194;5.684;2022-08-03T06:11:33;22.80;69.30
21489;DHT22;10906;45.194;5.684;2022-08-03T06:14:18;22.90;69.10
21489;DHT22;10906;45.194;5.684;2022-08-03T06:17:02;22.90;68.90
21489;DHT22;10906;45.194;5.684;2022-08-03T06:19:47;23.00;68.70
21489;DHT22;10906;45.194;5.684;2022-08-03T06:22:31;23.10;68.50
21489;DHT22;10906;45.194;5.684;2022-08-03T06:25:15;23.10;68.50
21489;DHT22;10906;45.194;5.684;2022-08-03T06:28:00;23.20;68.60
21489;DHT22;10906;45.194;5.684;2022-08-03T06:30:44;23.30;68.00
21489;DHT22;10906;45.194;5.684;2022-08-03T06:33:29;23.40;67.40
21489;DHT22;10906;45.194;5.684;2022-08-03T06:36:13;23.50;67.10
21489;DHT22;10906;45.194;5.684;2022-08-03T06:38:58;23.60;66.90
21489;DHT22;10906;45.194;5.684;2022-08-03T06:41:42;23.70;66.90
21489;DHT22;10906;45.194;5.684;2022-08-03T06:44:26;23.70;66.70
21489;DHT22;10906;45.194;5.684;2022-08-03T06:47:10;23.80;66.50
21489;DHT22;10906;45.194;5.684;2022-08-03T06:49:55;23.90;66.20
21489;DHT22;10906;45.194;5.684;2022-08-03T06:52:40;24.00;66.40
21489;DHT22;10906;45.194;5.684;2022-08-03T06:55:24;24.00;65.70
21489;DHT22;10906;45.194;5.684;2022-08-03T06:58:08;24.10;65.80
21489;DHT22;10906;45.194;5.684;2022-08-03T07:00:52;24.20;65.80
21489;DHT22;10906;45.194;5.684;2022-08-03T07:03:36;24.30;65.80
21489;DHT22;10906;45.194;5.684;2022-08-03T07:06:20;24.40;65.70
21489;DHT22;10906;45.194;5.684;2022-08-03T07:09:05;24.50;65.20
21489;DHT22;10906;45.194;5.684;2022-08-03T07:11:49;24.60;64.90
21489;DHT22;10906;45.194;5.684;2022-08-03T07:14:34;24.80;64.70
21489;DHT22;10906;45.194;5.684;2022-08-03T07:17:18;24.90;64.80
21489;DHT22;10906;45.194;5.684;2022-08-03T07:20:06;25.10;64.70
21489;DHT22;10906;45.194;5.684;2022-08-03T07:22:51;25.30;64.00
21489;DHT22;10906;45.194;5.684;2022-08-03T07:25:36;25.50;63.90
21489;DHT22;10906;45.194;5.684;2022-08-03T07:28:20;25.70;63.20
21489;DHT22;10906;45.194;5.684;2022-08-03T07:31:05;25.90;62.80
21489;DHT22;10906;45.194;5.684;2022-08-03T07:33:49;26.00;62.30
21489;DHT22;10906;45.194;5.684;2022-08-03T07:36:33;26.20;61.40
21489;DHT22;10906;45.194;5.684;2022-08-03T07:39:18;26.40;60.70
21489;DHT22;10906;45.194;5.684;2022-08-03T07:42:03;26.60;60.40
21489;DHT22;10906;45.194;5.684;2022-08-03T07:44:47;26.80;60.20
21489;DHT22;10906;45.194;5.684;2022-08-03T07:47:31;26.90;59.90
21489;DHT22;10906;45.194;5.684;2022-08-03T07:50:16;27.10;59.40
21489;DHT22;10906;45.194;5.684;2022-08-03T07:53:00;27.20;59.50
21489;DHT22;10906;45.194;5.684;2022-08-03T07:55:45;27.40;59.00
21489;DHT22;10906;45.194;5.684;2022-08-03T07:58:29;27.60;59.20
21489;DHT22;10906;45.194;5.684;2022-08-03T08:01:13;27.60;58.20
21489;DHT22;10906;45.194;5.684;2022-08-03T08:03:58;27.80;58.30
21489;DHT22;10906;45.194;5.684;2022-08-03T08:06:43;28.00;58.30
21489;DHT22;10906;45.194;5.684;2022-08-03T08:09:27;28.20;57.40
21489;DHT22;10906;45.194;5.684;2022-08-03T08:12:12;28.40;57.40
21489;DHT22;10906;45.194;5.684;2022-08-03T08:14:56;28.50;57.10
21489;DHT22;10906;45.194;5.684;2022-08-03T08:20:33;28.80;55.60
21489;DHT22;10906;45.194;5.684;2022-08-03T08:23:18;28.90;55.60
21489;DHT22;10906;45.194;5.684;2022-08-03T08:26:06;29.10;55.50
21489;DHT22;10906;45.194;5.684;2022-08-03T08:28:50;29.20;54.60
21489;DHT22;10906;45.194;5.684;2022-08-03T08:31:35;29.30;54.40
21489;DHT22;10906;45.194;5.684;2022-08-03T08:34:19;29.30;54.20
21489;DHT22;10906;45.194;5.684;2022-08-03T08:37:03;29.60;54.60
21489;DHT22;10906;45.194;5.684;2022-08-03T08:39:48;29.80;54.10
21489;DHT22;10906;45.194;5.684;2022-08-03T08:42:33;30.00;53.50
21489;DHT22;10906;45.194;5.684;2022-08-03T08:45:18;30.10;52.80
21489;DHT22;10906;45.194;5.684;2022-08-03T08:48:04;30.20;52.50
21489;DHT22;10906;45.194;5.684;2022-08-03T08:50:54;30.30;52.20
21489;DHT22;10906;45.194;5.684;2022-08-03T08:53:43;30.50;51.60
21489;DHT22;10906;45.194;5.684;2022-08-03T08:56:30;30.60;52.00
21489;DHT22;10906;45.194;5.684;2022-08-03T08:59:15;30.70;51.40
21489;DHT22;10906;45.194;5.684;2022-08-03T09:02:00;30.80;50.60
21489;DHT22;10906;45.194;5.684;2022-08-03T09:04:45;30.90;51.10
21489;DHT22;10906;45.194;5.684;2022-08-03T09:07:31;31.10;50.60
21489;DHT22;10906;45.194;5.684;2022-08-03T09:10:17;31.40;51.20
21489;DHT22;10906;45.194;5.684;2022-08-03T09:13:02;31.40;50.20
21489;DHT22;10906;45.194;5.684;2022-08-03T09:15:47;31.60;50.10
21489;DHT22;10906;45.194;5.684;2022-08-03T09:18:32;31.60;49.20
21489;DHT22;10906;45.194;5.684;2022-08-03T09:21:23;31.70;49.50
21489;DHT22;10906;45.194;5.684;2022-08-03T09:24:08;32.10;49.70
21489;DHT22;10906;45.194;5.684;2022-08-03T09:26:52;32.20;49.20
21489;DHT22;10906;45.194;5.684;2022-08-03T09:29:37;32.30;48.90
21489;DHT22;10906;45.194;5.684;2022-08-03T09:32:22;32.40;48.90
21489;DHT22;10906;45.194;5.684;2022-08-03T09:35:07;32.40;48.10
21489;DHT22;10906;45.194;5.684;2022-08-03T09:38:11;32.50;48.50
21489;DHT22;10906;45.194;5.684;2022-08-03T09:40:55;32.70;47.80
21489;DHT22;10906;45.194;5.684;2022-08-03T09:43:46;32.80;47.90
21489;DHT22;10906;45.194;5.684;2022-08-03T09:46:31;32.80;47.00
21489;DHT22;10906;45.194;5.684;2022-08-03T09:49:16;32.80;46.70
21489;DHT22;10906;45.194;5.684;2022-08-03T09:52:10;32.90;46.80
21489;DHT22;10906;45.194;5.684;2022-08-03T09:54:55;32.90;46.80
21489;DHT22;10906;45.194;5.684;2022-08-03T09:57:40;33.10;46.80
21489;DHT22;10906;45.194;5.684;2022-08-03T10:00:28;33.30;46.30
21489;DHT22;10906;45.194;5.684;2022-08-03T10:03:13;33.40;46.40
21489;DHT22;10906;45.194;5.684;2022-08-03T10:05:57;33.50;46.00
21489;DHT22;10906;45.194;5.684;2022-08-03T10:08:41;33.70;46.10
21489;DHT22;10906;45.194;5.684;2022-08-03T10:11:29;33.70;45.10
21489;DHT22;10906;45.194;5.684;2022-08-03T10:14:14;33.80;45.30
21489;DHT22;10906;45.194;5.684;2022-08-03T10:17:02;33.90;45.30
21489;DHT22;10906;45.194;5.684;2022-08-03T10:19:47;34.00;45.00
21489;DHT22;10906;45.194;5.684;2022-08-03T10:22:34;34.00;44.50
21489;DHT22;10906;45.194;5.684;2022-08-03T10:25:19;34.10;44.50
21489;DHT22;10906;45.194;5.684;2022-08-03T10:28:03;34.20;44.20
21489;DHT22;10906;45.194;5.684;2022-08-03T10:30:50;34.40;44.00
21489;DHT22;10906;45.194;5.684;2022-08-03T10:33:43;34.40;43.50
21489;DHT22;10906;45.194;5.684;2022-08-03T10:36:30;34.50;43.40
21489;DHT22;10906;45.194;5.684;2022-08-03T10:39:19;34.70;43.60
21489;DHT22;10906;45.194;5.684;2022-08-03T10:42:04;34.80;43.00
21489;DHT22;10906;45.194;5.684;2022-08-03T10:44:57;35.00;43.20
21489;DHT22;10906;45.194;5.684;2022-08-03T10:47:45;35.20;42.60
21489;DHT22;10906;45.194;5.684;2022-08-03T10:50:30;35.40;42.90
21489;DHT22;10906;45.194;5.684;2022-08-03T10:53:14;35.50;41.80
21489;DHT22;10906;45.194;5.684;2022-08-03T10:55:59;35.60;41.40
21489;DHT22;10906;45.194;5.684;2022-08-03T10:59:01;35.90;41.70
21489;DHT22;10906;45.194;5.684;2022-08-03T11:01:52;36.10;41.40
21489;DHT22;10906;45.194;5.684;2022-08-03T11:04:37;36.00;41.10
21489;DHT22;10906;45.194;5.684;2022-08-03T11:07:24;36.20;40.50
21489;DHT22;10906;45.194;5.684;2022-08-03T11:10:29;36.20;40.30
21489;DHT22;10906;45.194;5.684;2022-08-03T11:13:16;36.10;40.00
21489;DHT22;10906;45.194;5.684;2022-08-03T11:16:03;36.20;40.90
21489;DHT22;10906;45.194;5.684;2022-08-03T11:19:03;36.30;40.40
21489;DHT22;10906;45.194;5.684;2022-08-03T11:27:29;36.60;39.10
21489;DHT22;10906;45.194;5.684;2022-08-03T11:30:23;36.60;39.70
21489;DHT22;10906;45.194;5.684;2022-08-03T11:33:09;36.60;39.70
21489;DHT22;10906;45.194;5.684;2022-08-03T11:36:00;36.80;39.60
21489;DHT22;10906;45.194;5.684;2022-08-03T11:39:14;36.90;39.00
21489;DHT22;10906;45.194;5.684;2022-08-03T11:41:59;36.90;38.20
21489;DHT22;10906;45.194;5.684;2022-08-03T11:44:43;37.00;38.00
21489;DHT22;10906;45.194;5.684;2022-08-03T11:47:29;37.10;39.10
21489;DHT22;10906;45.194;5.684;2022-08-03T11:50:13;37.10;38.70
21489;DHT22;10906;45.194;5.684;2022-08-03T11:53:00;37.10;38.60
21489;DHT22;10906;45.194;5.684;2022-08-03T11:55:45;37.20;38.70
21489;DHT22;10906;45.194;5.684;2022-08-03T11:58:31;37.40;38.30
21489;DHT22;10906;45.194;5.684;2022-08-03T12:01:18;37.60;38.20
21489;DHT22;10906;45.194;5.684;2022-08-03T12:04:03;37.60;37.80
21489;DHT22;10906;45.194;5.684;2022-08-03T12:07:00;37.70;38.00
21489;DHT22;10906;45.194;5.684;2022-08-03T12:10:10;37.60;37.30
21489;DHT22;10906;45.194;5.684;2022-08-03T12:12:56;37.60;37.40
21489;DHT22;10906;45.194;5.684;2022-08-03T12:15:41;37.70;38.00
21489;DHT22;10906;45.194;5.684;2022-08-03T12:18:25;37.80;37.80
21489;DHT22;10906;45.194;5.684;2022-08-03T12:21:19;37.70;37.50
21489;DHT22;10906;45.194;5.684;2022-08-03T12:24:07;37.80;37.40
21489;DHT22;10906;45.194;5.684;2022-08-03T12:26:52;37.70;37.10
21489;DHT22;10906;45.194;5.684;2022-08-03T12:29:36;37.70;37.20
21489;DHT22;10906;45.194;5.684;2022-08-03T12:32:21;37.80;37.70
21489;DHT22;10906;45.194;5.684;2022-08-03T12:35:05;37.90;37.60
21489;DHT22;10906;45.194;5.684;2022-08-03T12:37:50;37.90;37.50
21489;DHT22;10906;45.194;5.684;2022-08-03T12:40:35;38.00;37.30
21489;DHT22;10906;45.194;5.684;2022-08-03T12:43:19;38.10;37.10
21489;DHT22;10906;45.194;5.684;2022-08-03T12:46:15;38.20;37.00
21489;DHT22;10906;45.194;5.684;2022-08-03T12:54:37;38.40;36.80
21489;DHT22;10906;45.194;5.684;2022-08-03T12:57:22;38.40;36.80
21489;DHT22;10906;45.194;5.684;2022-08-03T13:00:12;38.60;36.60
21489;DHT22;10906;45.194;5.684;2022-08-03T13:03:07;38.80;36.00
21489;DHT22;10906;45.194;5.684;2022-08-03T13:05:51;38.80;36.20
21489;DHT22;10906;45.194;5.684;2022-08-03T13:08:35;38.80;35.80
21489;DHT22;10906;45.194;5.684;2022-08-03T13:11:25;38.80;36.00
21489;DHT22;10906;45.194;5.684;2022-08-03T13:14:09;39.00;36.70
21489;DHT22;10906;45.194;5.684;2022-08-03T13:16:54;39.00;35.70
21489;DHT22;10906;45.194;5.684;2022-08-03T13:19:39;39.10;35.30
21489;DHT22;10906;45.194;5.684;2022-08-03T13:22:25;39.10;35.10
21489;DHT22;10906;45.194;5.684;2022-08-03T13:25:12;39.00;35.30
21489;DHT22;10906;45.194;5.684;2022-08-03T13:27:56;39.10;35.40
21489;DHT22;10906;45.194;5.684;2022-08-03T13:30:41;39.20;35.40
21489;DHT22;10906;45.194;5.684;2022-08-03T13:33:26;39.30;35.40
21489;DHT22;10906;45.194;5.684;2022-08-03T13:36:11;39.50;35.50
21489;DHT22;10906;45.194;5.684;2022-08-03T13:38:55;39.60;35.30
21489;DHT22;10906;45.194;5.684;2022-08-03T13:41:39;39.50;35.30
21489;DHT22;10906;45.194;5.684;2022-08-03T13:44:24;39.50;34.90
21489;DHT22;10906;45.194;5.684;2022-08-03T13:47:08;39.50;35.00
21489;DHT22;10906;45.194;5.684;2022-08-03T13:49:52;39.50;35.00
21489;DHT22;10906;45.194;5.684;2022-08-03T13:52:37;39.40;35.30
21489;DHT22;10906;45.194;5.684;2022-08-03T13:55:21;39.50;35.80
21489;DHT22;10906;45.194;5.684;2022-08-03T13:58:05;39.60;35.30
21489;DHT22;10906;45.194;5.684;2022-08-03T14:00:52;39.80;35.30
21489;DHT22;10906;45.194;5.684;2022-08-03T14:03:37;39.80;35.00
21489;DHT22;10906;45.194;5.684;2022-08-03T14:06:22;39.70;34.60
21489;DHT22;10906;45.194;5.684;2022-08-03T14:09:07;39.60;35.10
21489;DHT22;10906;45.194;5.684;2022-08-03T14:11:52;39.60;34.90
21489;DHT22;10906;45.194;5.684;2022-08-03T14:14:37;39.70;34.70
21489;DHT22;10906;45.194;5.684;2022-08-03T14:17:21;39.70;35.00
21489;DHT22;10906;45.194;5.684;2022-08-03T14:20:07;39.80;34.40
21489;DHT22;10906;45.194;5.684;2022-08-03T14:22:51;39.80;34.60
21489;DHT22;10906;45.194;5.684;2022-08-03T14:25:37;39.80;34.60
21489;DHT22;10906;45.194;5.684;2022-08-03T14:28:22;39.90;34.30
21489;DHT22;10906;45.194;5.684;2022-08-03T14:31:07;39.90;34.20
21489;DHT22;10906;45.194;5.684;2022-08-03T14:33:51;40.00;34.50
21489;DHT22;10906;45.194;5.684;2022-08-03T14:36:36;39.90;34.00
21489;DHT22;10906;45.194;5.684;2022-08-03T14:39:20;39.90;34.60
21489;DHT22;10906;45.194;5.684;2022-08-03T14:42:05;40.00;34.30
21489;DHT22;10906;45.194;5.684;2022-08-03T14:44:49;40.10;34.20
21489;DHT22;10906;45.194;5.684;2022-08-03T14:47:33;40.30;34.00
21489;DHT22;10906;45.194;5.684;2022-08-03T14:50:17;40.40;33.80
21489;DHT22;10906;45.194;5.684;2022-08-03T14:53:02;40.40;33.50
21489;DHT22;10906;45.194;5.684;2022-08-03T14:55:46;40.50;33.60
21489;DHT22;10906;45.194;5.684;2022-08-03T14:58:32;40.60;33.10
21489;DHT22;10906;45.194;5.684;2022-08-03T15:01:17;40.50;33.10
21489;DHT22;10906;45.194;5.684;2022-08-03T15:04:01;40.50;33.20
21489;DHT22;10906;45.194;5.684;2022-08-03T15:06:45;40.60;33.20
21489;DHT22;10906;45.194;5.684;2022-08-03T15:09:29;40.60;32.90
21489;DHT22;10906;45.194;5.684;2022-08-03T15:12:13;40.70;33.30
21489;DHT22;10906;45.194;5.684;2022-08-03T15:14:58;40.70;33.20
21489;DHT22;10906;45.194;5.684;2022-08-03T15:17:42;40.70;33.20
21489;DHT22;10906;45.194;5.684;2022-08-03T15:20:26;40.80;33.10
21489;DHT22;10906;45.194;5.684;2022-08-03T15:23:12;40.70;33.20
21489;DHT22;10906;45.194;5.684;2022-08-03T15:25:56;40.70;33.20
21489;DHT22;10906;45.194;5.684;2022-08-03T15:28:41;40.80;34.10
21489;DHT22;10906;45.194;5.684;2022-08-03T15:31:25;40.90;33.20
21489;DHT22;10906;45.194;5.684;2022-08-03T15:34:09;40.90;33.20
21489;DHT22;10906;45.194;5.684;2022-08-03T15:36:55;40.90;33.00
21489;DHT22;10906;45.194;5.684;2022-08-03T15:39:39;40.80;32.90
21489;DHT22;10906;45.194;5.684;2022-08-03T15:42:24;40.70;33.10
21489;DHT22;10906;45.194;5.684;2022-08-03T15:45:09;40.60;33.10
21489;DHT22;10906;45.194;5.684;2022-08-03T15:47:54;40.60;33.30
21489;DHT22;10906;45.194;5.684;2022-08-03T15:50:38;40.60;33.00
21489;DHT22;10906;45.194;5.684;2022-08-03T15:53:23;40.50;33.30
21489;DHT22;10906;45.194;5.684;2022-08-03T15:56:07;40.50;33.20
21489;DHT22;10906;45.194;5.684;2022-08-03T15:58:53;40.50;33.50
21489;DHT22;10906;45.194;5.684;2022-08-03T16:01:38;40.50;33.30
21489;DHT22;10906;45.194;5.684;2022-08-03T16:04:22;40.50;33.10
21489;DHT22;10906;45.194;5.684;2022-08-03T16:07:06;40.50;33.10
21489;DHT22;10906;45.194;5.684;2022-08-03T16:09:51;40.50;33.30
21489;DHT22;10906;45.194;5.684;2022-08-03T16:12:36;40.50;32.80
21489;DHT22;10906;45.194;5.684;2022-08-03T16:15:20;40.50;33.10
21489;DHT22;10906;45.194;5.684;2022-08-03T16:18:05;40.40;32.70
21489;DHT22;10906;45.194;5.684;2022-08-03T16:20:49;40.20;32.60
21489;DHT22;10906;45.194;5.684;2022-08-03T16:23:34;40.20;33.20
21489;DHT22;10906;45.194;5.684;2022-08-03T16:26:20;40.20;33.20
21489;DHT22;10906;45.194;5.684;2022-08-03T16:29:05;40.20;32.90
21489;DHT22;10906;45.194;5.684;2022-08-03T16:31:50;40.20;33.30
21489;DHT22;10906;45.194;5.684;2022-08-03T16:34:35;40.10;33.30
21489;DHT22;10906;45.194;5.684;2022-08-03T16:37:20;40.00;33.10
21489;DHT22;10906;45.194;5.684;2022-08-03T16:40:06;40.00;33.40
21489;DHT22;10906;45.194;5.684;2022-08-03T16:42:52;40.10;32.90
21489;DHT22;10906;45.194;5.684;2022-08-03T16:45:36;40.00;32.70
21489;DHT22;10906;45.194;5.684;2022-08-03T16:48:20;39.80;32.90
21489;DHT22;10906;45.194;5.684;2022-08-03T16:51:05;39.60;33.10
21489;DHT22;10906;45.194;5.684;2022-08-03T16:53:49;39.30;33.20
21489;DHT22;10906;45.194;5.684;2022-08-03T16:56:33;39.00;33.30
21489;DHT22;10906;45.194;5.684;2022-08-03T16:59:17;38.60;34.00
21489;DHT22;10906;45.194;5.684;2022-08-03T17:02:03;38.40;34.80
21489;DHT22;10906;45.194;5.684;2022-08-03T17:04:47;38.10;34.30
21489;DHT22;10906;45.194;5.684;2022-08-03T17:07:32;38.00;35.00
21489;DHT22;10906;45.194;5.684;2022-08-03T17:10:16;37.80;35.00
21489;DHT22;10906;45.194;5.684;2022-08-03T17:13:01;37.60;35.00
21489;DHT22;10906;45.194;5.684;2022-08-03T17:15:47;37.20;34.90
21489;DHT22;10906;45.194;5.684;2022-08-03T17:18:46;37.00;35.10
21489;DHT22;10906;45.194;5.684;2022-08-03T17:21:35;36.90;35.50
21489;DHT22;10906;45.194;5.684;2022-08-03T17:24:36;36.70;35.60
21489;DHT22;10906;45.194;5.684;2022-08-03T17:27:27;36.50;35.90
21489;DHT22;10906;45.194;5.684;2022-08-03T17:30:12;36.30;35.90
21489;DHT22;10906;45.194;5.684;2022-08-03T17:32:58;36.20;36.10
21489;DHT22;10906;45.194;5.684;2022-08-03T17:35:43;36.10;36.40
21489;DHT22;10906;45.194;5.684;2022-08-03T17:38:27;35.90;36.40
21489;DHT22;10906;45.194;5.684;2022-08-03T17:41:14;35.70;36.80
21489;DHT22;10906;45.194;5.684;2022-08-03T17:43:59;35.50;36.90
21489;DHT22;10906;45.194;5.684;2022-08-03T17:46:44;35.50;37.00
21489;DHT22;10906;45.194;5.684;2022-08-03T17:49:27;35.30;37.30
21489;DHT22;10906;45.194;5.684;2022-08-03T17:52:29;35.20;37.50
21489;DHT22;10906;45.194;5.684;2022-08-03T17:55:22;35.10;38.30
21489;DHT22;10906;45.194;5.684;2022-08-03T17:58:20;35.00;37.80
21489;DHT22;10906;45.194;5.684;2022-08-03T18:01:07;34.90;39.30
21489;DHT22;10906;45.194;5.684;2022-08-03T18:04:14;34.70;38.70
21489;DHT22;10906;45.194;5.684;2022-08-03T18:07:05;34.60;39.20
21489;DHT22;10906;45.194;5.684;2022-08-03T18:09:52;34.60;39.70
21489;DHT22;10906;45.194;5.684;2022-08-03T18:13:20;34.50;39.80
21489;DHT22;10906;45.194;5.684;2022-08-03T18:16:00;34.40;39.30
21489;DHT22;10906;45.194;5.684;2022-08-03T18:18:48;34.20;40.50
21489;DHT22;10906;45.194;5.684;2022-08-03T18:21:37;34.00;41.30
21489;DHT22;10906;45.194;5.684;2022-08-03T18:24:23;33.90;41.90
21489;DHT22;10906;45.194;5.684;2022-08-03T18:27:09;33.80;42.40
21489;DHT22;10906;45.194;5.684;2022-08-03T18:29:54;33.70;42.30
21489;DHT22;10906;45.194;5.684;2022-08-03T18:32:40;33.60;42.20
21489;DHT22;10906;45.194;5.684;2022-08-03T18:35:25;33.60;42.60
21489;DHT22;10906;45.194;5.684;2022-08-03T18:38:12;33.50;42.90
21489;DHT22;10906;45.194;5.684;2022-08-03T18:40:59;33.40;44.00
21489;DHT22;10906;45.194;5.684;2022-08-03T18:43:44;33.20;43.90
21489;DHT22;10906;45.194;5.684;2022-08-03T18:46:35;33.20;44.70
21489;DHT22;10906;45.194;5.684;2022-08-03T18:53:06;33.00;44.60
21489;DHT22;10906;45.194;5.684;2022-08-03T18:56:33;32.90;45.20
21489;DHT22;10906;45.194;5.684;2022-08-03T19:02:13;32.60;44.80
21489;DHT22;10906;45.194;5.684;2022-08-03T19:05:09;32.50;45.80
21489;DHT22;10906;45.194;5.684;2022-08-03T19:08:03;32.30;45.70
21489;DHT22;10906;45.194;5.684;2022-08-03T19:10:53;32.20;46.20
21489;DHT22;10906;45.194;5.684;2022-08-03T19:13:43;32.10;46.00
21489;DHT22;10906;45.194;5.684;2022-08-03T19:16:35;32.00;46.40
21489;DHT22;10906;45.194;5.684;2022-08-03T19:19:19;31.90;46.80
21489;DHT22;10906;45.194;5.684;2022-08-03T19:22:05;31.80;46.80
21489;DHT22;10906;45.194;5.684;2022-08-03T19:24:53;31.70;47.00
21489;DHT22;10906;45.194;5.684;2022-08-03T19:27:38;31.70;47.10
21489;DHT22;10906;45.194;5.684;2022-08-03T19:30:22;31.70;47.90
21489;DHT22;10906;45.194;5.684;2022-08-03T19:33:18;31.60;47.20
21489;DHT22;10906;45.194;5.684;2022-08-03T19:36:04;31.50;47.10
21489;DHT22;10906;45.194;5.684;2022-08-03T19:38:50;31.40;47.30
21489;DHT22;10906;45.194;5.684;2022-08-03T19:41:37;31.30;47.20
21489;DHT22;10906;45.194;5.684;2022-08-03T19:44:26;31.20;47.30
21489;DHT22;10906;45.194;5.684;2022-08-03T19:47:34;31.10;48.00
21489;DHT22;10906;45.194;5.684;2022-08-03T19:50:19;31.00;48.20
21489;DHT22;10906;45.194;5.684;2022-08-03T19:53:09;30.90;47.80
21489;DHT22;10906;45.194;5.684;2022-08-03T19:55:56;30.90;48.10
21489;DHT22;10906;45.194;5.684;2022-08-03T19:58:41;30.70;48.80
21489;DHT22;10906;45.194;5.684;2022-08-03T20:01:26;30.60;49.00
21489;DHT22;10906;45.194;5.684;2022-08-03T20:04:12;30.60;48.90
21489;DHT22;10906;45.194;5.684;2022-08-03T20:06:57;30.50;49.50
21489;DHT22;10906;45.194;5.684;2022-08-03T20:09:42;30.50;49.00
21489;DHT22;10906;45.194;5.684;2022-08-03T20:12:27;30.40;49.10
21489;DHT22;10906;45.194;5.684;2022-08-03T20:15:12;30.30;49.60
21489;DHT22;10906;45.194;5.684;2022-08-03T20:17:57;30.20;49.50
21489;DHT22;10906;45.194;5.684;2022-08-03T20:20:41;30.20;49.30
21489;DHT22;10906;45.194;5.684;2022-08-03T20:23:26;30.10;49.80
21489;DHT22;10906;45.194;5.684;2022-08-03T20:26:15;30.10;50.50
21489;DHT22;10906;45.194;5.684;2022-08-03T20:29:04;30.00;50.10
21489;DHT22;10906;45.194;5.684;2022-08-03T20:31:49;30.00;50.50
21489;DHT22;10906;45.194;5.684;2022-08-03T20:34:33;29.90;50.70
21489;DHT22;10906;45.194;5.684;2022-08-03T20:37:18;29.90;50.60
21489;DHT22;10906;45.194;5.684;2022-08-03T20:40:04;29.80;51.00
21489;DHT22;10906;45.194;5.684;2022-08-03T20:42:49;29.80;51.00
21489;DHT22;10906;45.194;5.684;2022-08-03T20:45:37;29.70;50.90
21489;DHT22;10906;45.194;5.684;2022-08-03T20:48:21;29.70;51.20
21489;DHT22;10906;45.194;5.684;2022-08-03T20:51:06;29.60;51.50
21489;DHT22;10906;45.194;5.684;2022-08-03T20:53:52;29.50;51.90
21489;DHT22;10906;45.194;5.684;2022-08-03T20:56:37;29.60;52.00
21489;DHT22;10906;45.194;5.684;2022-08-03T20:59:22;29.50;51.70
21489;DHT22;10906;45.194;5.684;2022-08-03T21:02:08;29.50;51.50
21489;DHT22;10906;45.194;5.684;2022-08-03T21:04:52;29.40;51.60
21489;DHT22;10906;45.194;5.684;2022-08-03T21:07:45;29.40;51.30
21489;DHT22;10906;45.194;5.684;2022-08-03T21:10:31;29.40;51.70
21489;DHT22;10906;45.194;5.684;2022-08-03T21:13:36;29.40;51.30
21489;DHT22;10906;45.194;5.684;2022-08-03T21:16:22;29.40;51.10
21489;DHT22;10906;45.194;5.684;2022-08-03T21:19:11;29.50;50.70
21489;DHT22;10906;45.194;5.684;2022-08-03T21:21:55;29.70;50.30
21489;DHT22;10906;45.194;5.684;2022-08-03T21:24:42;29.80;50.20
21489;DHT22;10906;45.194;5.684;2022-08-03T21:27:29;29.90;49.50
21489;DHT22;10906;45.194;5.684;2022-08-03T21:30:14;30.00;49.60
21489;DHT22;10906;45.194;5.684;2022-08-03T21:32:59;30.00;49.40
21489;DHT22;10906;45.194;5.684;2022-08-03T21:35:44;30.00;49.60
21489;DHT22;10906;45.194;5.684;2022-08-03T21:38:29;30.00;49.80
21489;DHT22;10906;45.194;5.684;2022-08-03T21:41:15;29.90;49.50
21489;DHT22;10906;45.194;5.684;2022-08-03T21:44:00;29.90;49.60
21489;DHT22;10906;45.194;5.684;2022-08-03T21:46:45;29.90;50.10
21489;DHT22;10906;45.194;5.684;2022-08-03T21:49:32;29.80;50.00
21489;DHT22;10906;45.194;5.684;2022-08-03T21:52:20;29.80;50.20
21489;DHT22;10906;45.194;5.684;2022-08-03T21:55:06;29.80;50.10
21489;DHT22;10906;45.194;5.684;2022-08-03T21:57:52;29.70;50.30
